Empire, Colorado
Current Conditions -  °F | °C
As of 9:30 AM on Thursday 30 Oct 2014 (Local Time) from K0CO Reporting Station
Clear Clear  
Wind Chill: 11°   Ceiling: Unl
Heat Index: 27°   Visibility: 10mi
Dew Point: 21°   Wind: 28mph
Humidity: 80%   Direction: 320°NW
Pressure: 30.54"   Gusts: 38mph
Location:  39.76°N, 105.68°W
Report Text: K0CO 301530Z AUTO 32024G33KT 10SM CLR M03/M06 A3054 RMK AO2
Loading
Personal Weather Stations






























Interactive Weather Map
Tropical Storm Tracking
New forecast layout! Learn more

10-Day Weather Forecast

Advertisements
Track Severe Weather on mobile